Time;durP1;ratioP1;P1;durP2;ratioP2;P2;SDS_P1;SDS_P2;PMS_P1;PMS_P2;Temp;Humidity;BMP_temperature;BMP_pressure;BME280_temperature;BME280_humidity;BME280_pressure;Samples;Min_cycle;Max_cycle;Signal;HPM_P1;HPM_P2
2023/11/21 00:01:57;;;;;;;6.17;5.57;;;;;;;;;;5093771;28;20485;-61
2023/11/21 00:04:23;;;;;;;6.17;5.57;;;;;;;;;;5094296;28;20447;-62
2023/11/21 00:06:50;;;;;;;5.43;5.00;;;;;;;;;;5094236;28;20896;-62
2023/11/21 00:09:19;;;;;;;6.17;5.23;;;;;;;;;;5094285;28;20541;-62
2023/11/21 00:11:46;;;;;;;8.80;5.70;;;;;;;;;;5094240;28;20451;-62
2023/11/21 00:14:15;;;;;;;6.23;5.47;;;;;;;;;;5094109;28;20473;-62
2023/11/21 00:16:42;;;;;;;6.63;6.00;;;;;;;;;;5093853;28;20478;-62
2023/11/21 00:19:09;;;;;;;6.30;5.70;;;;;;;;;;5093760;28;20483;-62
2023/11/21 00:21:36;;;;;;;6.40;5.50;;;;;;;;;;5094184;28;20479;-62
2023/11/21 00:24:02;;;;;;;7.60;6.33;;;;;;;;;;5094039;28;20539;-62
2023/11/21 00:26:36;;;;;;;5.73;5.23;;;;;;;;;;5093875;28;20922;-62
2023/11/21 00:29:03;;;;;;;8.00;5.83;;;;;;;;;;5093812;28;20458;-62
2023/11/21 00:31:30;;;;;;;7.03;6.33;;;;;;;;;;5093809;28;20534;-62
2023/11/21 00:33:57;;;;;;;8.80;6.57;;;;;;;;;;5093744;28;20929;-62
2023/11/21 00:36:25;;;;;;;6.60;5.60;;;;;;;;;;5093754;28;20439;-62
2023/11/21 00:38:52;;;;;;;8.57;6.53;;;;;;;;;;5093573;28;20434;-62
2023/11/21 00:41:19;;;;;;;7.73;6.33;;;;;;;;;;5093618;28;20481;-62
2023/11/21 00:43:47;;;;;;;9.20;6.57;;;;;;;;;;5093584;28;20449;-62
2023/11/21 00:46:14;;;;;;;7.70;6.90;;;;;;;;;;5093441;28;20534;-62
2023/11/21 00:48:41;;;;;;;8.47;6.73;;;;;;;;;;5093499;28;20470;-62
2023/11/21 00:51:08;;;;;;;7.93;7.13;;;;;;;;;;5093567;28;20442;-61
2023/11/21 00:53:35;;;;;;;9.73;7.43;;;;;;;;;;5093478;28;20485;-62
2023/11/21 00:56:02;;;;;;;11.80;7.83;;;;;;;;;;5093421;28;21128;-61
2023/11/21 00:58:30;;;;;;;9.30;8.23;;;;;;;;;;5093352;28;20888;-62
2023/11/21 01:00:58;;;;;;;16.97;9.07;;;;;;;;;;5093206;28;20818;-62
2023/11/21 01:03:25;;;;;;;15.70;9.67;;;;;;;;;;5093406;28;20446;-62
2023/11/21 01:05:52;;;;;;;13.60;9.87;;;;;;;;;;5093357;28;20482;-62
2023/11/21 01:08:20;;;;;;;17.30;12.00;;;;;;;;;;5093161;28;21005;-61
2023/11/21 01:10:46;;;;;;;16.00;11.87;;;;;;;;;;5093306;28;20447;-62
2023/11/21 01:13:15;;;;;;;22.07;12.57;;;;;;;;;;5092932;28;20534;-62
2023/11/21 01:15:42;;;;;;;25.07;12.80;;;;;;;;;;5093148;28;20462;-61
2023/11/21 01:18:10;;;;;;;23.37;14.37;;;;;;;;;;5093180;28;20451;-61
2023/11/21 01:20:37;;;;;;;24.60;14.57;;;;;;;;;;5093130;28;20886;-62
2023/11/21 01:23:04;;;;;;;21.23;13.70;;;;;;;;;;5093126;28;20527;-61
2023/11/21 01:25:31;;;;;;;22.20;14.07;;;;;;;;;;5093061;28;20960;-62
2023/11/21 01:27:58;;;;;;;31.53;15.57;;;;;;;;;;5092856;28;20541;-62
2023/11/21 01:30:25;;;;;;;27.50;17.10;;;;;;;;;;5093165;28;20529;-62
2023/11/21 01:32:52;;;;;;;23.67;15.67;;;;;;;;;;5093088;28;20465;-61
2023/11/21 01:35:20;;;;;;;28.37;15.27;;;;;;;;;;5092995;28;20450;-62
2023/11/21 01:37:48;;;;;;;30.40;14.77;;;;;;;;;;5093073;28;20539;-61
2023/11/21 01:40:15;;;;;;;28.37;15.40;;;;;;;;;;5092864;28;20509;-61
2023/11/21 01:42:43;;;;;;;29.17;16.67;;;;;;;;;;5092859;28;20483;-61
2023/11/21 01:45:12;;;;;;;34.33;16.43;;;;;;;;;;5093050;28;20495;-61
2023/11/21 01:47:39;;;;;;;31.80;17.50;;;;;;;;;;5092895;28;20443;-62
2023/11/21 01:50:08;;;;;;;31.03;17.77;;;;;;;;;;5092815;28;20451;-62
2023/11/21 01:52:36;;;;;;;27.80;17.70;;;;;;;;;;5092758;28;20878;-61
2023/11/21 01:55:04;;;;;;;34.43;16.07;;;;;;;;;;5092622;28;20807;-62
2023/11/21 01:57:31;;;;;;;31.63;17.23;;;;;;;;;;5092858;28;20447;-61
2023/11/21 02:00:00;;;;;;;27.93;15.10;;;;;;;;;;5092737;28;20478;-62
2023/11/21 02:02:27;;;;;;;25.13;15.53;;;;;;;;;;5092820;28;20442;-61
2023/11/21 02:04:53;;;;;;;25.10;15.10;;;;;;;;;;5092680;28;20544;-61
2023/11/21 02:07:23;;;;;;;25.10;15.50;;;;;;;;;;5092536;28;20993;-61
2023/11/21 02:09:51;;;;;;;27.20;16.10;;;;;;;;;;5092544;28;20450;-61
2023/11/21 02:12:18;;;;;;;24.33;14.37;;;;;;;;;;5092780;28;20442;-62
2023/11/21 02:14:45;;;;;;;24.43;14.60;;;;;;;;;;5092717;28;20541;-61
2023/11/21 02:17:13;;;;;;;23.13;14.07;;;;;;;;;;5092385;28;20549;-62
2023/11/21 02:19:39;;;;;;;20.37;13.90;;;;;;;;;;5092502;28;20474;-61
2023/11/21 02:22:07;;;;;;;28.50;14.50;;;;;;;;;;5092419;28;20478;-62
2023/11/21 02:24:36;;;;;;;23.83;13.53;;;;;;;;;;5095023;28;20442;-61
2023/11/21 02:27:03;;;;;;;21.87;13.40;;;;;;;;;;5096252;28;20449;-62
2023/11/21 02:29:30;;;;;;;18.70;12.63;;;;;;;;;;5096116;28;20445;-61
2023/11/21 02:31:57;;;;;;;20.50;12.33;;;;;;;;;;5096073;28;20493;-62
2023/11/21 02:34:25;;;;;;;18.10;11.60;;;;;;;;;;5095956;28;20446;-61
2023/11/21 02:36:52;;;;;;;20.03;11.50;;;;;;;;;;5095916;28;20461;-61
2023/11/21 02:39:21;;;;;;;16.70;11.70;;;;;;;;;;5096054;28;20442;-61
2023/11/21 02:41:50;;;;;;;24.57;12.40;;;;;;;;;;5095975;28;20453;-61
2023/11/21 02:44:17;;;;;;;19.87;11.23;;;;;;;;;;5095929;28;20863;-61
2023/11/21 02:46:43;;;;;;;19.90;11.00;;;;;;;;;;5095784;28;20441;-62
2023/11/21 02:49:11;;;;;;;21.27;12.60;;;;;;;;;;5095649;28;20445;-61
2023/11/21 02:51:38;;;;;;;23.37;11.47;;;;;;;;;;5095869;28;20865;-62
2023/11/21 02:54:08;;;;;;;20.67;12.00;;;;;;;;;;5095793;28;20442;-61
2023/11/21 02:56:34;;;;;;;21.00;11.97;;;;;;;;;;5095607;28;20442;-62
2023/11/21 02:59:03;;;;;;;23.83;13.17;;;;;;;;;;5095289;28;20439;-61
2023/11/21 03:01:30;;;;;;;22.47;12.73;;;;;;;;;;5095397;28;20513;-61
2023/11/21 03:03:57;;;;;;;20.70;12.60;;;;;;;;;;5095387;28;20557;-61
2023/11/21 03:06:24;;;;;;;19.80;11.60;;;;;;;;;;5095549;28;20529;-61
2023/11/21 03:08:51;;;;;;;19.83;11.47;;;;;;;;;;5095392;28;20443;-61
2023/11/21 03:11:18;;;;;;;21.77;11.87;;;;;;;;;;5095356;28;20458;-61
2023/11/21 03:13:45;;;;;;;26.77;11.77;;;;;;;;;;5095304;28;20442;-61
2023/11/21 03:16:14;;;;;;;17.70;11.10;;;;;;;;;;5094932;28;20388;-61
2023/11/21 03:18:42;;;;;;;19.40;11.90;;;;;;;;;;5095321;28;20553;-61
2023/11/21 03:21:09;;;;;;;18.65;11.52;;;;;;;;;;5095145;28;20845;-61
2023/11/21 03:23:36;;;;;;;15.87;10.20;;;;;;;;;;5095135;28;20575;-61
2023/11/21 03:26:02;;;;;;;16.63;10.00;;;;;;;;;;5095060;28;20462;-61
2023/11/21 03:28:30;;;;;;;20.20;10.50;;;;;;;;;;5095474;28;20474;-61
2023/11/21 03:30:57;;;;;;;12.33;8.03;;;;;;;;;;5094847;28;20454;-61
2023/11/21 03:33:25;;;;;;;12.67;9.50;;;;;;;;;;5095014;28;20537;-61
2023/11/21 03:35:52;;;;;;;12.97;9.67;;;;;;;;;;5094952;28;20443;-62
2023/11/21 03:38:20;;;;;;;14.20;8.90;;;;;;;;;;5094790;28;20443;-61
2023/11/21 03:40:47;;;;;;;14.10;9.63;;;;;;;;;;5094677;28;20514;-61
2023/11/21 03:43:14;;;;;;;14.60;8.17;;;;;;;;;;5094604;28;20530;-62
2023/11/21 03:45:41;;;;;;;10.97;8.17;;;;;;;;;;5094687;28;21008;-61
2023/11/21 03:48:08;;;;;;;11.87;8.00;;;;;;;;;;5094661;28;20447;-61
2023/11/21 03:50:36;;;;;;;11.80;7.67;;;;;;;;;;5094350;28;21020;-61
2023/11/21 03:53:03;;;;;;;13.25;9.13;;;;;;;;;;5094526;28;20478;-61
2023/11/21 03:55:31;;;;;;;9.33;7.87;;;;;;;;;;5094453;28;20663;-61
2023/11/21 03:57:58;;;;;;;12.20;7.73;;;;;;;;;;5094221;28;20952;-61
2023/11/21 04:00:26;;;;;;;9.02;7.47;;;;;;;;;;5094431;28;20470;-61
2023/11/21 04:02:53;;;;;;;10.20;7.65;;;;;;;;;;5094410;28;20565;-62
2023/11/21 04:05:22;;;;;;;9.30;7.60;;;;;;;;;;5094314;28;20275;-61
2023/11/21 04:07:50;;;;;;;8.60;6.83;;;;;;;;;;5094134;28;20450;-61
2023/11/21 04:10:18;;;;;;;9.60;7.70;;;;;;;;;;5094055;28;20952;-62
2023/11/21 04:12:45;;;;;;;9.57;6.80;;;;;;;;;;5093941;28;20787;-61
2023/11/21 04:15:13;;;;;;;11.30;7.20;;;;;;;;;;5094040;28;20450;-62
2023/11/21 04:17:40;;;;;;;7.90;6.77;;;;;;;;;;5093624;28;20447;-61
2023/11/21 04:20:08;;;;;;;8.10;6.63;;;;;;;;;;5093426;28;20481;-61
2023/11/21 04:22:35;;;;;;;8.40;6.63;;;;;;;;;;5093341;28;20500;-61
2023/11/21 04:25:04;;;;;;;7.67;6.87;;;;;;;;;;5093212;28;20449;-61
2023/11/21 04:27:31;;;;;;;8.40;6.83;;;;;;;;;;5093424;28;20446;-61
2023/11/21 04:29:57;;;;;;;6.93;5.60;;;;;;;;;;5093234;28;20489;-62
2023/11/21 04:32:24;;;;;;;7.30;5.97;;;;;;;;;;5093140;28;20541;-61
2023/11/21 04:34:51;;;;;;;8.47;6.17;;;;;;;;;;5093219;28;20798;-61
2023/11/21 04:37:18;;;;;;;8.37;6.77;;;;;;;;;;5093043;28;20487;-61
2023/11/21 04:39:45;;;;;;;6.87;6.20;;;;;;;;;;5093300;28;20453;-61
2023/11/21 04:42:13;;;;;;;7.80;6.03;;;;;;;;;;5093645;28;20514;-61
2023/11/21 04:44:41;;;;;;;6.93;6.13;;;;;;;;;;5093629;28;20530;-62
2023/11/21 04:47:08;;;;;;;6.70;5.63;;;;;;;;;;5093143;28;20453;-61
2023/11/21 04:49:34;;;;;;;6.60;6.00;;;;;;;;;;5093427;28;20473;-61
2023/11/21 04:52:03;;;;;;;7.77;6.10;;;;;;;;;;5093385;28;20474;-61
2023/11/21 04:54:30;;;;;;;7.13;5.50;;;;;;;;;;5093541;28;20442;-61
2023/11/21 04:56:57;;;;;;;6.13;5.50;;;;;;;;;;5093528;28;20446;-61
2023/11/21 04:59:26;;;;;;;4.93;4.40;;;;;;;;;;5093336;28;20449;-61
2023/11/21 05:01:53;;;;;;;6.40;5.43;;;;;;;;;;5093295;28;20482;-61
2023/11/21 05:04:22;;;;;;;6.10;4.73;;;;;;;;;;5093278;28;20451;-61
2023/11/21 05:06:49;;;;;;;5.47;4.90;;;;;;;;;;5093102;28;20443;-61
2023/11/21 05:09:16;;;;;;;5.33;4.83;;;;;;;;;;5093344;28;20560;-61
2023/11/21 05:11:43;;;;;;;6.35;5.10;;;;;;;;;;5093246;28;20501;-62
2023/11/21 05:14:10;;;;;;;4.97;4.20;;;;;;;;;;5093160;28;20279;-61
2023/11/21 05:16:38;;;;;;;4.40;4.00;;;;;;;;;;5092951;28;20275;-61
2023/11/21 05:19:06;;;;;;;5.82;4.43;;;;;;;;;;5092977;28;20809;-62
2023/11/21 05:21:33;;;;;;;4.37;4.07;;;;;;;;;;5092948;28;20706;-61
2023/11/21 05:24:00;;;;;;;5.33;4.30;;;;;;;;;;5093177;28;20448;-61
2023/11/21 05:26:27;;;;;;;7.33;5.00;;;;;;;;;;5093132;28;20533;-61
2023/11/21 05:28:54;;;;;;;5.10;4.20;;;;;;;;;;5093015;28;20814;-61
2023/11/21 05:31:21;;;;;;;5.63;4.80;;;;;;;;;;5092976;28;20486;-61
2023/11/21 05:33:49;;;;;;;4.43;4.03;;;;;;;;;;5092861;28;20977;-61
2023/11/21 05:36:16;;;;;;;4.35;3.95;;;;;;;;;;5093070;28;20464;-61
2023/11/21 05:38:43;;;;;;;4.93;4.07;;;;;;;;;;5092966;28;20275;-62
2023/11/21 05:41:13;;;;;;;5.43;4.43;;;;;;;;;;5092911;28;20616;-61
2023/11/21 05:43:40;;;;;;;5.27;3.90;;;;;;;;;;5092733;28;20192;-61
2023/11/21 05:46:08;;;;;;;5.70;4.25;;;;;;;;;;5092787;28;20450;-62
2023/11/21 05:48:37;;;;;;;4.27;3.93;;;;;;;;;;5092613;28;20188;-61
2023/11/21 05:51:05;;;;;;;5.30;4.43;;;;;;;;;;5092947;28;20454;-61
2023/11/21 05:53:32;;;;;;;5.63;4.28;;;;;;;;;;5092885;28;20192;-61
2023/11/21 05:55:59;;;;;;;5.20;4.70;;;;;;;;;;5092786;28;20636;-61
2023/11/21 05:58:26;;;;;;;4.70;4.30;;;;;;;;;;5093310;28;20279;-61
2023/11/21 06:00:53;;;;;;;4.72;4.32;;;;;;;;;;5096461;28;20553;-61
2023/11/21 06:03:20;;;;;;;6.72;5.40;;;;;;;;;;5096707;28;20284;-61
2023/11/21 06:05:46;;;;;;;5.35;4.82;;;;;;;;;;5096750;28;20195;-61
2023/11/21 06:08:16;;;;;;;5.93;4.53;;;;;;;;;;5096473;28;20354;-61
2023/11/21 06:10:43;;;;;;;4.80;4.40;;;;;;;;;;5096470;28;20933;-61
2023/11/21 06:13:10;;;;;;;4.97;4.47;;;;;;;;;;5096392;28;20224;-61
2023/11/21 06:15:38;;;;;;;5.00;4.23;;;;;;;;;;5096140;28;20466;-61
2023/11/21 06:18:09;;;;;;;5.33;4.83;;;;;;;;;;5096516;28;20447;-61
2023/11/21 06:20:37;;;;;;;6.63;5.47;;;;;;;;;;5096340;28;20454;-61
2023/11/21 06:23:04;;;;;;;8.95;5.68;;;;;;;;;;5096291;28;20801;-61
2023/11/21 06:25:33;;;;;;;6.07;4.93;;;;;;;;;;5096184;28;20185;-61
2023/11/21 06:28:00;;;;;;;5.17;4.63;;;;;;;;;;5095844;28;20228;-61
2023/11/21 06:30:28;;;;;;;6.27;5.27;;;;;;;;;;5096239;28;20537;-61
2023/11/21 06:32:56;;;;;;;6.00;5.40;;;;;;;;;;5096173;28;20992;-62
2023/11/21 06:35:23;;;;;;;6.70;6.10;;;;;;;;;;5096053;28;20443;-61
2023/11/21 06:37:51;;;;;;;7.07;5.17;;;;;;;;;;5095863;28;20453;-61
2023/11/21 06:40:19;;;;;;;6.43;5.82;;;;;;;;;;5095733;28;20448;-62
2023/11/21 06:42:47;;;;;;;5.67;5.10;;;;;;;;;;5095486;28;20217;-62
2023/11/21 06:45:14;;;;;;;6.43;5.77;;;;;;;;;;5095714;28;20802;-62
2023/11/21 06:47:41;;;;;;;6.75;5.82;;;;;;;;;;5095693;28;20507;-62
2023/11/21 06:50:09;;;;;;;5.00;4.60;;;;;;;;;;5095564;28;20275;-62
2023/11/21 06:52:35;;;;;;;6.27;5.00;;;;;;;;;;5095470;28;20554;-61
2023/11/21 06:55:03;;;;;;;7.55;6.85;;;;;;;;;;5095383;28;20533;-62
2023/11/21 06:57:29;;;;;;;5.80;4.80;;;;;;;;;;5095550;28;20224;-62
2023/11/21 06:59:58;;;;;;;5.78;4.50;;;;;;;;;;5095489;28;20739;-62
2023/11/21 07:02:25;;;;;;;5.37;4.77;;;;;;;;;;5095101;28;20691;-61
2023/11/21 07:04:52;;;;;;;5.23;4.73;;;;;;;;;;5095446;28;20478;-62
2023/11/21 07:07:19;;;;;;;5.50;4.73;;;;;;;;;;5095252;28;20450;-61
2023/11/21 07:09:47;;;;;;;5.30;4.77;;;;;;;;;;5094792;28;20857;-62
2023/11/21 07:12:14;;;;;;;6.30;4.87;;;;;;;;;;5095432;28;20438;-61
2023/11/21 07:14:44;;;;;;;5.83;5.20;;;;;;;;;;5095367;28;20446;-62
2023/11/21 07:17:12;;;;;;;9.88;4.38;;;;;;;;;;5094958;28;20477;-62
2023/11/21 07:19:39;;;;;;;7.20;5.30;;;;;;;;;;5095083;28;20623;-61
2023/11/21 07:22:06;;;;;;;6.20;5.00;;;;;;;;;;5094877;28;20227;-62
2023/11/21 07:24:33;;;;;;;6.33;4.23;;;;;;;;;;5095074;28;20500;-62
2023/11/21 07:27:00;;;;;;;5.60;4.83;;;;;;;;;;5095346;28;20447;-61
2023/11/21 07:29:29;;;;;;;6.72;5.07;;;;;;;;;;5095106;28;20449;-62
2023/11/21 07:31:56;;;;;;;6.82;4.90;;;;;;;;;;5094555;28;20246;-61
2023/11/21 07:34:24;;;;;;;5.88;4.57;;;;;;;;;;5094797;28;20280;-61
2023/11/21 07:36:51;;;;;;;5.90;4.80;;;;;;;;;;5094604;28;20193;-62
2023/11/21 07:39:18;;;;;;;6.37;4.57;;;;;;;;;;5094724;28;20242;-62
2023/11/21 07:41:48;;;;;;;6.23;4.80;;;;;;;;;;5094619;28;20873;-61
2023/11/21 07:44:15;;;;;;;8.47;5.30;;;;;;;;;;5094510;28;20439;-61
2023/11/21 07:46:42;;;;;;;8.77;6.45;;;;;;;;;;5094570;28;20439;-61
2023/11/21 07:49:09;;;;;;;8.90;6.80;;;;;;;;;;5094377;28;20215;-61
2023/11/21 07:51:37;;;;;;;11.20;7.05;;;;;;;;;;5094535;28;20474;-61
2023/11/21 07:54:06;;;;;;;7.97;6.00;;;;;;;;;;5094395;28;20188;-61
2023/11/21 07:56:33;;;;;;;8.30;6.00;;;;;;;;;;5094429;28;20534;-61
2023/11/21 07:58:59;;;;;;;10.00;6.55;;;;;;;;;;5094252;28;20279;-61
2023/11/21 08:01:27;;;;;;;11.45;6.43;;;;;;;;;;5093973;28;20701;-59
2023/11/21 08:03:56;;;;;;;15.63;6.47;;;;;;;;;;5093988;28;20245;-60
2023/11/21 08:06:23;;;;;;;9.90;6.82;;;;;;;;;;5093896;28;20788;-60
2023/11/21 08:08:51;;;;;;;13.65;7.10;;;;;;;;;;5093968;28;20184;-60
2023/11/21 08:11:19;;;;;;;10.48;5.95;;;;;;;;;;5093853;28;20279;-61
2023/11/21 08:13:46;;;;;;;11.18;5.63;;;;;;;;;;5093989;28;20648;-61
2023/11/21 08:16:13;;;;;;;8.07;6.00;;;;;;;;;;5085265;28;20292;-57
2023/11/21 08:18:41;;;;;;;10.73;7.60;;;;;;;;;;5073623;28;20435;-60
2023/11/21 08:21:08;;;;;;;10.13;6.50;;;;;;;;;;5072952;28;20228;-61
2023/11/21 08:23:35;;;;;;;13.18;6.57;;;;;;;;;;5073493;28;20209;-60
2023/11/21 08:26:03;;;;;;;7.32;4.90;;;;;;;;;;5073476;28;20292;-56
2023/11/21 08:28:30;;;;;;;7.78;5.85;;;;;;;;;;5073250;28;20189;-59
2023/11/21 08:30:57;;;;;;;8.18;5.25;;;;;;;;;;5073251;28;20191;-58
2023/11/21 08:33:24;;;;;;;9.45;4.93;;;;;;;;;;5073519;28;20197;-59
2023/11/21 08:35:51;;;;;;;5.97;4.30;;;;;;;;;;5073401;28;20612;-56
2023/11/21 08:38:18;;;;;;;6.80;4.40;;;;;;;;;;5073045;28;20276;-60
2023/11/21 08:40:45;;;;;;;7.38;4.70;;;;;;;;;;5073181;28;20451;-60
2023/11/21 08:43:14;;;;;;;6.40;4.45;;;;;;;;;;5073165;28;20228;-61
2023/11/21 08:45:41;;;;;;;5.78;4.35;;;;;;;;;;5073012;28;20193;-60
2023/11/21 08:48:08;;;;;;;8.13;4.97;;;;;;;;;;5073113;28;20621;-61
2023/11/21 08:50:35;;;;;;;5.65;4.57;;;;;;;;;;5073132;28;20283;-66
2023/11/21 08:53:02;;;;;;;7.18;4.72;;;;;;;;;;5072962;28;20285;-66
2023/11/21 08:55:29;;;;;;;6.73;4.77;;;;;;;;;;5072604;28;20724;-66
2023/11/21 08:57:58;;;;;;;5.95;4.38;;;;;;;;;;5072771;28;20439;-66
2023/11/21 09:00:27;;;;;;;5.97;3.88;;;;;;;;;;5072968;28;20244;-66
2023/11/21 09:02:53;;;;;;;4.32;3.92;;;;;;;;;;5072868;28;20308;-61
2023/11/21 09:05:21;;;;;;;5.10;3.70;;;;;;;;;;5072928;28;20626;-61
2023/11/21 09:07:48;;;;;;;4.57;4.18;;;;;;;;;;5072874;28;20224;-60
2023/11/21 09:10:15;;;;;;;3.28;2.97;;;;;;;;;;5072766;28;20193;-60
2023/11/21 09:12:43;;;;;;;3.67;3.38;;;;;;;;;;5072788;28;20667;-60
2023/11/21 09:15:11;;;;;;;3.25;2.90;;;;;;;;;;5072730;28;20204;-60
2023/11/21 09:17:40;;;;;;;3.42;3.13;;;;;;;;;;5072888;28;20192;-60
2023/11/21 09:20:09;;;;;;;3.40;3.10;;;;;;;;;;5072826;28;20185;-60
2023/11/21 09:22:36;;;;;;;3.10;2.90;;;;;;;;;;5072641;28;20220;-59
2023/11/21 09:25:05;;;;;;;3.70;3.40;;;;;;;;;;5072638;28;20276;-60
2023/11/21 09:27:32;;;;;;;2.72;2.50;;;;;;;;;;5072721;28;20189;-60
2023/11/21 09:29:59;;;;;;;2.75;2.42;;;;;;;;;;5073053;28;20617;-59
2023/11/21 09:32:25;;;;;;;2.60;2.40;;;;;;;;;;5073502;28;20247;-60
2023/11/21 09:34:55;;;;;;;2.55;2.35;;;;;;;;;;5076482;28;20256;-61
2023/11/21 09:37:22;;;;;;;2.78;2.55;;;;;;;;;;5076619;28;20216;-62
2023/11/21 09:39:50;;;;;;;2.42;2.22;;;;;;;;;;5076792;28;20272;-60
2023/11/21 09:42:18;;;;;;;2.60;2.40;;;;;;;;;;5076674;28;20307;-61
2023/11/21 09:44:47;;;;;;;3.13;2.28;;;;;;;;;;5076583;28;20193;-60
2023/11/21 09:47:16;;;;;;;2.25;2.05;;;;;;;;;;5076485;28;20193;-60
2023/11/21 09:49:46;;;;;;;4.72;2.97;;;;;;;;;;5076428;28;20189;-59
2023/11/21 09:52:17;;;;;;;2.55;2.35;;;;;;;;;;5076437;28;20537;-60
2023/11/21 09:54:44;;;;;;;2.25;2.15;;;;;;;;;;5076601;28;20293;-60
2023/11/21 09:57:11;;;;;;;2.72;2.53;;;;;;;;;;5076368;28;20589;-61
2023/11/21 09:59:38;;;;;;;2.90;2.17;;;;;;;;;;5076416;28;20200;-61
2023/11/21 10:02:05;;;;;;;3.00;2.15;;;;;;;;;;5075991;28;20215;-60
2023/11/21 10:04:33;;;;;;;2.40;2.20;;;;;;;;;;5076070;28;20219;-61
2023/11/21 10:07:00;;;;;;;2.40;2.20;;;;;;;;;;5076176;28;20357;-59
2023/11/21 10:09:28;;;;;;;2.13;2.03;;;;;;;;;;5076019;28;20612;-62
2023/11/21 10:11:57;;;;;;;2.17;1.98;;;;;;;;;;5075980;28;20284;-61
2023/11/21 10:14:28;;;;;;;2.35;2.15;;;;;;;;;;5075964;28;20196;-61
2023/11/21 10:16:56;;;;;;;1.90;1.80;;;;;;;;;;5075785;28;20241;-61
2023/11/21 10:19:24;;;;;;;1.92;1.83;;;;;;;;;;5075610;28;20193;-61
2023/11/21 10:21:52;;;;;;;4.13;2.05;;;;;;;;;;5075837;28;20196;-61
2023/11/21 10:24:19;;;;;;;1.95;1.85;;;;;;;;;;5075631;28;20587;-61
2023/11/21 10:26:48;;;;;;;1.67;1.58;;;;;;;;;;5075694;28;20205;-60
2023/11/21 10:29:18;;;;;;;1.63;1.53;;;;;;;;;;5075621;28;20204;-60
2023/11/21 10:31:45;;;;;;;1.67;1.58;;;;;;;;;;5075488;28;20443;-60
2023/11/21 10:34:14;;;;;;;2.38;1.42;;;;;;;;;;5075707;28;20193;-61
2023/11/21 10:36:41;;;;;;;1.65;1.55;;;;;;;;;;5075579;28;20189;-62
2023/11/21 10:39:09;;;;;;;1.30;1.20;;;;;;;;;;5075421;28;20272;-61
2023/11/21 10:41:36;;;;;;;1.48;1.38;;;;;;;;;;5075467;28;20189;-61
2023/11/21 10:44:07;;;;;;;1.83;1.40;;;;;;;;;;5074598;28;20280;-84
2023/11/21 10:46:34;;;;;;;1.83;1.08;;;;;;;;;;5075378;28;20196;-63
2023/11/21 10:49:01;;;;;;;1.30;1.20;;;;;;;;;;5075350;28;20231;-63
2023/11/21 10:51:28;;;;;;;1.35;1.25;;;;;;;;;;5075179;28;20195;-61
2023/11/21 10:53:56;;;;;;;1.83;1.70;;;;;;;;;;5075293;28;20243;-65
2023/11/21 10:56:24;;;;;;;1.67;1.42;;;;;;;;;;5075133;28;20193;-61
2023/11/21 10:58:52;;;;;;;2.28;1.20;;;;;;;;;;5075048;28;20280;-66
2023/11/21 11:01:21;;;;;;;1.35;1.25;;;;;;;;;;5075240;28;20193;-66
2023/11/21 11:03:49;;;;;;;1.17;1.08;;;;;;;;;;5074957;28;20609;-64
2023/11/21 11:06:16;;;;;;;1.55;1.45;;;;;;;;;;5075025;28;20569;-62
2023/11/21 11:08:43;;;;;;;1.45;1.35;;;;;;;;;;5074513;28;20189;-61
2023/11/21 11:11:11;;;;;;;1.52;1.42;;;;;;;;;;5074766;28;20614;-61
2023/11/21 11:13:39;;;;;;;1.35;1.25;;;;;;;;;;5075066;28;20629;-65
2023/11/21 11:16:10;;;;;;;1.30;1.20;;;;;;;;;;5074730;28;20312;-62
2023/11/21 11:18:38;;;;;;;1.80;1.38;;;;;;;;;;5074827;28;20193;-64
2023/11/21 11:21:11;;;;;;;1.40;1.30;;;;;;;;;;5074639;28;20189;-64
2023/11/21 11:23:46;;;;;;;1.63;1.52;;;;;;;;;;5074625;28;20217;-67
2023/11/21 11:26:21;;;;;;;1.20;1.10;;;;;;;;;;5074887;28;20275;-64
2023/11/21 11:28:49;;;;;;;1.33;1.23;;;;;;;;;;5074366;28;20694;-59
2023/11/21 11:31:19;;;;;;;2.15;1.50;;;;;;;;;;5074396;28;20199;-63
2023/11/21 11:33:52;;;;;;;1.30;1.20;;;;;;;;;;5074797;28;20618;-62
2023/11/21 11:36:22;;;;;;;1.45;1.20;;;;;;;;;;5074410;28;20284;-62
2023/11/21 11:38:50;;;;;;;1.38;1.27;;;;;;;;;;5074367;28;20712;-59
2023/11/21 11:41:25;;;;;;;1.50;1.40;;;;;;;;;;5074459;28;20189;-61
2023/11/21 11:43:52;;;;;;;1.42;1.33;;;;;;;;;;5073518;28;20346;-60
2023/11/21 11:46:21;;;;;;;2.28;2.00;;;;;;;;;;5073779;28;20204;-60
2023/11/21 11:48:49;;;;;;;2.65;1.50;;;;;;;;;;5074018;28;20200;-61
2023/11/21 11:51:19;;;;;;;1.67;1.50;;;;;;;;;;5074301;28;20196;-62
2023/11/21 11:53:47;;;;;;;1.65;1.55;;;;;;;;;;5074172;28;20250;-62
2023/11/21 11:56:22;;;;;;;2.53;1.87;;;;;;;;;;5072914;28;20190;-62
2023/11/21 11:58:49;;;;;;;1.50;1.40;;;;;;;;;;5073889;28;20449;-62
2023/11/21 12:01:18;;;;;;;1.58;1.23;;;;;;;;;;5073776;28;20212;-65
2023/11/21 12:03:46;;;;;;;3.13;1.15;;;;;;;;;;5073855;28;20220;-61
2023/11/21 12:06:15;;;;;;;1.65;1.38;;;;;;;;;;5073674;28;20193;-62
2023/11/21 12:08:44;;;;;;;1.52;1.42;;;;;;;;;;5073729;28;20276;-61
2023/11/21 12:11:14;;;;;;;1.77;1.40;;;;;;;;;;5073481;28;20189;-60
2023/11/21 12:13:40;;;;;;;1.20;1.10;;;;;;;;;;5073575;28;20591;-60
2023/11/21 12:16:08;;;;;;;1.20;1.13;;;;;;;;;;5073594;28;20308;-60
2023/11/21 12:18:35;;;;;;;1.77;1.40;;;;;;;;;;5073689;28;20692;-61
2023/11/21 12:21:03;;;;;;;2.35;1.60;;;;;;;;;;5073632;28;20185;-61
2023/11/21 12:23:32;;;;;;;1.65;1.23;;;;;;;;;;5073525;28;20220;-61
2023/11/21 12:25:59;;;;;;;3.20;1.52;;;;;;;;;;5073417;28;20193;-61
2023/11/21 12:28:26;;;;;;;1.55;1.45;;;;;;;;;;5073238;28;20656;-62
2023/11/21 12:30:53;;;;;;;2.85;2.30;;;;;;;;;;5073310;28;20199;-62
2023/11/21 12:33:20;;;;;;;2.50;1.88;;;;;;;;;;5073256;28;20292;-63
2023/11/21 12:35:46;;;;;;;1.70;1.60;;;;;;;;;;5073371;28;20250;-62
2023/11/21 12:38:13;;;;;;;1.27;1.17;;;;;;;;;;5073156;28;20590;-61
2023/11/21 12:40:42;;;;;;;1.60;1.50;;;;;;;;;;5073168;28;20192;-61
2023/11/21 12:43:09;;;;;;;1.30;1.20;;;;;;;;;;5073099;28;20217;-61
2023/11/21 12:45:37;;;;;;;1.58;1.48;;;;;;;;;;5075556;28;20285;-62
2023/11/21 12:48:08;;;;;;;1.52;1.42;;;;;;;;;;5093147;28;20196;-62
2023/11/21 12:50:36;;;;;;;1.65;1.55;;;;;;;;;;5093178;28;20810;-62
2023/11/21 12:53:04;;;;;;;1.80;1.70;;;;;;;;;;5093304;28;20197;-63
2023/11/21 12:55:32;;;;;;;1.85;1.75;;;;;;;;;;5093070;28;20281;-65
2023/11/21 12:58:08;;;;;;;2.42;2.25;;;;;;;;;;5093333;28;20224;-69
2023/11/21 13:00:37;;;;;;;4.70;2.10;;;;;;;;;;5093167;28;20625;-60
2023/11/21 13:03:04;;;;;;;2.50;2.30;;;;;;;;;;5093149;28;20216;-62
2023/11/21 13:05:32;;;;;;;3.90;3.17;;;;;;;;;;5093064;28;20279;-63
2023/11/21 13:08:02;;;;;;;5.10;3.42;;;;;;;;;;5092628;28;20188;-63
2023/11/21 13:10:30;;;;;;;3.10;2.90;;;;;;;;;;5093245;28;20283;-62
2023/11/21 13:12:59;;;;;;;4.40;4.00;;;;;;;;;;5093123;28;20529;-63
2023/11/21 13:15:28;;;;;;;5.43;4.32;;;;;;;;;;5092957;28;20302;-65
2023/11/21 13:17:57;;;;;;;6.10;4.15;;;;;;;;;;5092777;28;20561;-65
2023/11/21 13:20:24;;;;;;;3.90;3.55;;;;;;;;;;5092878;28;20239;-63
2023/11/21 13:22:53;;;;;;;4.25;3.95;;;;;;;;;;5093060;28;20552;-64
2023/11/21 13:25:20;;;;;;;4.70;4.30;;;;;;;;;;5093200;28;20237;-63
2023/11/21 13:27:48;;;;;;;4.35;3.97;;;;;;;;;;5092765;28;20271;-62
2023/11/21 13:30:16;;;;;;;4.22;3.92;;;;;;;;;;5092773;28;20191;-64
2023/11/21 13:32:46;;;;;;;5.82;4.40;;;;;;;;;;5092732;28;20199;-63
2023/11/21 13:35:20;;;;;;;5.53;4.32;;;;;;;;;;5093055;28;20580;-62
2023/11/21 13:37:48;;;;;;;4.00;3.70;;;;;;;;;;5092910;28;20192;-64
2023/11/21 13:40:22;;;;;;;3.55;3.25;;;;;;;;;;5092805;28;20281;-64
2023/11/21 13:42:49;;;;;;;3.85;3.55;;;;;;;;;;5092686;28;20195;-63
2023/11/21 13:45:18;;;;;;;3.42;3.10;;;;;;;;;;5092551;28;20275;-64
2023/11/21 13:47:46;;;;;;;3.33;3.05;;;;;;;;;;5092720;28;20188;-63
2023/11/21 13:50:16;;;;;;;4.28;3.90;;;;;;;;;;5092777;28;20276;-64
2023/11/21 13:52:44;;;;;;;3.90;3.08;;;;;;;;;;5092778;28;20279;-62
2023/11/21 13:55:15;;;;;;;5.47;4.10;;;;;;;;;;5092566;28;20189;-62
2023/11/21 13:57:44;;;;;;;3.95;3.65;;;;;;;;;;5092565;28;20281;-57
2023/11/21 14:00:36;;;;;;;4.15;3.72;;;;;;;;;;5092427;28;20671;-62
2023/11/21 14:03:01;;;;;;;4.05;3.58;;;;;;;;;;5092349;28;20639;-61
2023/11/21 14:05:29;;;;;;;3.65;3.35;;;;;;;;;;5092532;28;20188;-61
2023/11/21 14:08:02;;;;;;;4.60;4.20;;;;;;;;;;5092439;28;20295;-62
2023/11/21 14:10:36;;;;;;;4.43;4.13;;;;;;;;;;5092336;28;20199;-63
2023/11/21 14:13:04;;;;;;;5.05;4.65;;;;;;;;;;5092637;28;20192;-62
2023/11/21 14:15:32;;;;;;;5.60;4.50;;;;;;;;;;5092419;28;20220;-61
2023/11/21 14:18:05;;;;;;;5.20;4.70;;;;;;;;;;5092137;28;20189;-62
2023/11/21 14:20:33;;;;;;;4.53;4.22;;;;;;;;;;5093885;28;20180;-61
2023/11/21 14:23:00;;;;;;;5.97;5.18;;;;;;;;;;5095628;28;20184;-61
2023/11/21 14:25:27;;;;;;;5.68;5.28;;;;;;;;;;5096133;28;20231;-62
2023/11/21 14:27:56;;;;;;;5.97;5.47;;;;;;;;;;5095968;28;20445;-62
2023/11/21 14:30:23;;;;;;;6.53;5.80;;;;;;;;;;5095979;28;20192;-61
2023/11/21 14:32:50;;;;;;;5.97;5.45;;;;;;;;;;5094677;28;20193;-61
2023/11/21 14:35:19;;;;;;;6.38;5.78;;;;;;;;;;5095663;28;20238;-62
2023/11/21 14:37:46;;;;;;;6.53;5.93;;;;;;;;;;5095405;28;20211;-61
2023/11/21 14:40:15;;;;;;;6.53;5.80;;;;;;;;;;5096021;28;20195;-62
2023/11/21 14:42:42;;;;;;;7.20;6.50;;;;;;;;;;5095860;28;20196;-62